Cranberry, North Carolina
Current Conditions -  °F | °C
As of 1:55 AM on Thursday 23 Oct 2014 (Local Time) from KTNB Reporting Station
Clear Clear  
Wind Chill: 34°   Ceiling: Unl
Heat Index: 41°   Visibility: 10mi
Dew Point: 35°   Wind: 13mph
Humidity: 78%   Direction: 290°WNW
Pressure: 30.12"   Gusts: 21mph
Location:  36.1731°N, 81.9572°W
Report Text: KTNB 230555Z AUTO 29011G18KT 10SM CLR 05/01 A3012 RMK AO2 T00500014 10055 20050 400870040
Loading
Personal Weather Stations






























Interactive Weather Map
Tropical Storm Tracking
New forecast layout! Learn more

10-Day Weather Forecast

Advertisements
Track Severe Weather on mobile